Text Box: All records at near 07:00 local time
Kleivo 1 weather for Apr 2008
Month no. 17
Obs.
Da.
Temp. Dew Point Precip. Wind
Speed
Wind gusts Cloud cover Press. Humidity Wind dir. Sunny OPT
01.04.2008 7,8   0,0 0,0   1 993,9 66,0 0,0   65,0 %
02.04.2008 5,6   0,0 0,0   1 990,9 85,0 0,0   62,5 %
03.04.2008 4,4   0,0 0,0   1 1004,7 94,0 0,0   60,0 %
04.04.2008 4,8   0,0 0,0   1 998,0 92,0 0,0   60,0 %
05.04.2008 5,3   0,0 0,0   1 985,4 86,0 0,0   62,5 %
06.04.2008 7,0   0,0 0,0   1 982,7 65,0 0,0   62,5 %
07.04.2008 0,1   0,0 0,0   1 983,1 88,0 0,0   57,5 %
08.04.2008 2,3   0,0 0,0   1 988,5 88,0 0,0   57,5 %
09.04.2008 -1,8   0,0 0,0   1 983,1 90,0 0,0   55,0 %
10.04.2008 3,1   0,0 0,0   1 978,7 64,0 0,0   60,0 %
11.04.2008 3,3   0,0 0,0   1 985,1 84,0 0,0   60,0 %
12.04.2008 4,8   0,0 0,0   1 984,8 72,0 0,0   60,0 %
13.04.2008 2,9   0,0 0,0   1 984,4 91,0 0,0   60,0 %
14.04.2008 3,0   9,7 0,0   1 989,2 93,0 0,0   52,5 %
15.04.2008 -0,1   0,0 0,0   1 998,3 92,0 0,0   55,0 %
16.04.2008 -2,1   0,0 0,0   1 1005,8 89,0 0,0   55,0 %
17.04.2008 0,4   0,0 0,0   1 1005,4 79,0 0,0   57,5 %
18.04.2008 5,6   0,0 0,0   1 998,0 46,0 0,0   62,5 %
19.04.2008 1,3   0,0 0,0   1 992,2 79,0 0,0   57,5 %
20.04.2008 0,4   0,0 0,0   1 996,6 90,0 0,0   57,5 %
21.04.2008 10,7   0,0 0,0   10 999,3 66,0 0,0 1 90,0 %
22.04.2008 3,7   0,0 0,0   1 1002,0 89,0 0,0   60,0 %
23.04.2008 8,6   0,0 0,0   1 1004,7 61,0 0,0   65,0 %
24.04.2008 11,3   0,0 0,0   1 1003,0 52,0 0,0   67,5 %
25.04.2008 7,8   0,0 0,0   1 999,3 92,0 0,0   65,0 %
26.04.2008 7,5   0,0 0,0   1 1002,0 83,0 0,0   65,0 %
27.04.2008 8,2   0,0 0,0   1 997,6 96,0 0,0   65,0 %
28.04.2008 10,4   0,0 0,0   1 986,1 88,0 0,0   67,5 %
29.04.2008 8,1   0,0 0,0   1 985,1 85,0 0,0   65,0 %
30.04.2008 6,8   0,0 0,0   10 986,5 94,0 0,0 1 85,0 %
                       
Avrg/Sum 4,7   9,7 0,0   1,6 993,1 81,3 0,0 2 62,5 %